sensor_id;sensor_type;location;lat;lon;timestamp;P1;durP1;ratioP1;P2;durP2;ratioP2
64550;SDS011;50945;44.472;-123.352;2022-12-18T00:01:17;6.25;;;3.20;;
64550;SDS011;50945;44.472;-123.352;2022-12-18T00:03:55;6.35;;;3.35;;
64550;SDS011;50945;44.472;-123.352;2022-12-18T00:06:21;8.65;;;3.47;;
64550;SDS011;50945;44.472;-123.352;2022-12-18T00:08:49;6.55;;;3.28;;
64550;SDS011;50945;44.472;-123.352;2022-12-18T00:11:23;5.22;;;3.58;;
64550;SDS011;50945;44.472;-123.352;2022-12-18T00:13:51;6.45;;;3.70;;
64550;SDS011;50945;44.472;-123.352;2022-12-18T00:16:20;5.35;;;3.38;;
64550;SDS011;50945;44.472;-123.352;2022-12-18T00:18:49;5.00;;;3.13;;
64550;SDS011;50945;44.472;-123.352;2022-12-18T00:21:18;4.45;;;3.15;;
64550;SDS011;50945;44.472;-123.352;2022-12-18T00:26:13;5.22;;;3.13;;
64550;SDS011;50945;44.472;-123.352;2022-12-18T00:28:44;6.35;;;3.28;;
64550;SDS011;50945;44.472;-123.352;2022-12-18T00:31:13;7.10;;;3.80;;
64550;SDS011;50945;44.472;-123.352;2022-12-18T00:33:41;5.85;;;3.25;;
64550;SDS011;50945;44.472;-123.352;2022-12-18T00:36:09;5.03;;;3.45;;
64550;SDS011;50945;44.472;-123.352;2022-12-18T00:38:38;4.60;;;3.10;;
64550;SDS011;50945;44.472;-123.352;2022-12-18T00:41:05;6.10;;;3.38;;
64550;SDS011;50945;44.472;-123.352;2022-12-18T00:43:32;4.78;;;3.35;;
64550;SDS011;50945;44.472;-123.352;2022-12-18T00:45:59;5.78;;;3.35;;
64550;SDS011;50945;44.472;-123.352;2022-12-18T00:48:26;7.15;;;3.90;;
64550;SDS011;50945;44.472;-123.352;2022-12-18T00:50:52;4.93;;;3.00;;
64550;SDS011;50945;44.472;-123.352;2022-12-18T00:53:19;4.82;;;3.25;;
64550;SDS011;50945;44.472;-123.352;2022-12-18T00:55:45;7.07;;;3.15;;
64550;SDS011;50945;44.472;-123.352;2022-12-18T00:58:12;6.95;;;3.95;;
64550;SDS011;50945;44.472;-123.352;2022-12-18T01:00:41;39.83;;;15.15;;
64550;SDS011;50945;44.472;-123.352;2022-12-18T01:03:08;40.33;;;15.93;;
64550;SDS011;50945;44.472;-123.352;2022-12-18T01:05:39;77.53;;;27.52;;
64550;SDS011;50945;44.472;-123.352;2022-12-18T01:08:07;66.55;;;25.25;;
64550;SDS011;50945;44.472;-123.352;2022-12-18T01:10:33;73.82;;;22.38;;
64550;SDS011;50945;44.472;-123.352;2022-12-18T01:13:00;54.15;;;17.90;;
64550;SDS011;50945;44.472;-123.352;2022-12-18T01:15:26;27.92;;;10.85;;
64550;SDS011;50945;44.472;-123.352;2022-12-18T01:17:53;33.83;;;11.38;;
64550;SDS011;50945;44.472;-123.352;2022-12-18T01:20:20;40.75;;;12.93;;
64550;SDS011;50945;44.472;-123.352;2022-12-18T01:22:46;34.80;;;11.88;;
64550;SDS011;50945;44.472;-123.352;2022-12-18T01:25:13;8.52;;;4.57;;
64550;SDS011;50945;44.472;-123.352;2022-12-18T01:27:39;17.70;;;9.05;;
64550;SDS011;50945;44.472;-123.352;2022-12-18T01:30:06;8.80;;;4.80;;
64550;SDS011;50945;44.472;-123.352;2022-12-18T01:32:33;10.48;;;3.60;;
64550;SDS011;50945;44.472;-123.352;2022-12-18T01:34:59;4.40;;;3.58;;
64550;SDS011;50945;44.472;-123.352;2022-12-18T01:37:26;14.27;;;6.57;;
64550;SDS011;50945;44.472;-123.352;2022-12-18T01:39:52;18.50;;;8.82;;
64550;SDS011;50945;44.472;-123.352;2022-12-18T01:42:22;13.98;;;6.93;;
64550;SDS011;50945;44.472;-123.352;2022-12-18T01:47:51;23.23;;;8.20;;
64550;SDS011;50945;44.472;-123.352;2022-12-18T01:55:46;22.13;;;7.65;;
64550;SDS011;50945;44.472;-123.352;2022-12-18T01:58:16;18.13;;;7.03;;
64550;SDS011;50945;44.472;-123.352;2022-12-18T02:00:44;23.67;;;9.05;;
64550;SDS011;50945;44.472;-123.352;2022-12-18T02:03:11;15.20;;;6.57;;
64550;SDS011;50945;44.472;-123.352;2022-12-18T02:05:40;22.48;;;8.23;;
64550;SDS011;50945;44.472;-123.352;2022-12-18T02:08:19;14.85;;;6.75;;
64550;SDS011;50945;44.472;-123.352;2022-12-18T02:13:20;15.73;;;6.05;;
64550;SDS011;50945;44.472;-123.352;2022-12-18T02:15:54;10.48;;;5.10;;
64550;SDS011;50945;44.472;-123.352;2022-12-18T02:18:38;12.20;;;5.43;;
64550;SDS011;50945;44.472;-123.352;2022-12-18T02:26:58;13.00;;;5.53;;
64550;SDS011;50945;44.472;-123.352;2022-12-18T02:29:33;11.85;;;5.95;;
64550;SDS011;50945;44.472;-123.352;2022-12-18T02:32:28;8.43;;;3.90;;
64550;SDS011;50945;44.472;-123.352;2022-12-18T02:34:59;10.35;;;4.78;;
64550;SDS011;50945;44.472;-123.352;2022-12-18T02:37:30;8.23;;;4.10;;
64550;SDS011;50945;44.472;-123.352;2022-12-18T02:39:59;5.28;;;3.72;;
64550;SDS011;50945;44.472;-123.352;2022-12-18T02:42:29;7.88;;;4.28;;
64550;SDS011;50945;44.472;-123.352;2022-12-18T02:44:56;5.68;;;3.35;;
64550;SDS011;50945;44.472;-123.352;2022-12-18T02:47:27;5.40;;;3.17;;
64550;SDS011;50945;44.472;-123.352;2022-12-18T02:52:35;5.68;;;4.07;;
64550;SDS011;50945;44.472;-123.352;2022-12-18T03:01:21;9.07;;;3.90;;
64550;SDS011;50945;44.472;-123.352;2022-12-18T03:04:04;6.90;;;3.75;;
64550;SDS011;50945;44.472;-123.352;2022-12-18T03:06:58;5.20;;;3.85;;
64550;SDS011;50945;44.472;-123.352;2022-12-18T03:09:29;6.00;;;4.07;;
64550;SDS011;50945;44.472;-123.352;2022-12-18T03:12:04;4.95;;;3.60;;
64550;SDS011;50945;44.472;-123.352;2022-12-18T03:17:27;7.43;;;3.83;;
64550;SDS011;50945;44.472;-123.352;2022-12-18T03:19:57;6.32;;;3.72;;
64550;SDS011;50945;44.472;-123.352;2022-12-18T03:22:28;6.43;;;3.55;;
64550;SDS011;50945;44.472;-123.352;2022-12-18T03:24:58;6.35;;;3.47;;
64550;SDS011;50945;44.472;-123.352;2022-12-18T03:27:28;6.13;;;3.72;;
64550;SDS011;50945;44.472;-123.352;2022-12-18T03:30:01;6.13;;;3.78;;
64550;SDS011;50945;44.472;-123.352;2022-12-18T03:32:40;7.50;;;3.70;;
64550;SDS011;50945;44.472;-123.352;2022-12-18T03:35:16;6.95;;;5.03;;
64550;SDS011;50945;44.472;-123.352;2022-12-18T03:37:48;7.43;;;4.95;;
64550;SDS011;50945;44.472;-123.352;2022-12-18T03:40:16;4.05;;;3.15;;
64550;SDS011;50945;44.472;-123.352;2022-12-18T03:55:37;5.05;;;3.60;;
64550;SDS011;50945;44.472;-123.352;2022-12-18T03:58:05;9.10;;;3.70;;
64550;SDS011;50945;44.472;-123.352;2022-12-18T04:00:34;6.75;;;4.07;;
64550;SDS011;50945;44.472;-123.352;2022-12-18T04:03:01;12.60;;;6.63;;
64550;SDS011;50945;44.472;-123.352;2022-12-18T04:05:30;7.45;;;4.80;;
64550;SDS011;50945;44.472;-123.352;2022-12-18T04:08:00;7.63;;;4.63;;
64550;SDS011;50945;44.472;-123.352;2022-12-18T04:10:27;8.13;;;4.60;;
64550;SDS011;50945;44.472;-123.352;2022-12-18T04:12:57;8.18;;;4.43;;
64550;SDS011;50945;44.472;-123.352;2022-12-18T04:15:24;6.20;;;3.80;;
64550;SDS011;50945;44.472;-123.352;2022-12-18T04:17:50;5.20;;;3.33;;
64550;SDS011;50945;44.472;-123.352;2022-12-18T04:20:17;7.20;;;3.92;;
64550;SDS011;50945;44.472;-123.352;2022-12-18T04:22:43;6.22;;;3.40;;
64550;SDS011;50945;44.472;-123.352;2022-12-18T04:25:10;6.90;;;3.67;;
64550;SDS011;50945;44.472;-123.352;2022-12-18T04:27:36;7.03;;;3.83;;
64550;SDS011;50945;44.472;-123.352;2022-12-18T04:30:03;4.72;;;3.17;;
64550;SDS011;50945;44.472;-123.352;2022-12-18T04:32:30;6.68;;;3.70;;
64550;SDS011;50945;44.472;-123.352;2022-12-18T04:34:59;6.40;;;3.70;;
64550;SDS011;50945;44.472;-123.352;2022-12-18T04:37:26;5.45;;;3.55;;
64550;SDS011;50945;44.472;-123.352;2022-12-18T04:39:53;4.35;;;3.47;;
64550;SDS011;50945;44.472;-123.352;2022-12-18T04:42:19;5.53;;;3.42;;
64550;SDS011;50945;44.472;-123.352;2022-12-18T04:44:46;7.30;;;3.80;;
64550;SDS011;50945;44.472;-123.352;2022-12-18T04:47:12;5.20;;;3.65;;
64550;SDS011;50945;44.472;-123.352;2022-12-18T04:49:47;3.25;;;2.88;;
64550;SDS011;50945;44.472;-123.352;2022-12-18T04:52:13;4.82;;;3.05;;
64550;SDS011;50945;44.472;-123.352;2022-12-18T04:54:40;4.22;;;3.28;;
64550;SDS011;50945;44.472;-123.352;2022-12-18T04:57:06;3.38;;;2.92;;
64550;SDS011;50945;44.472;-123.352;2022-12-18T04:59:33;5.15;;;3.25;;
64550;SDS011;50945;44.472;-123.352;2022-12-18T05:01:59;4.82;;;2.65;;
64550;SDS011;50945;44.472;-123.352;2022-12-18T05:04:26;9.20;;;3.35;;
64550;SDS011;50945;44.472;-123.352;2022-12-18T05:06:52;4.57;;;3.33;;
64550;SDS011;50945;44.472;-123.352;2022-12-18T05:09:18;6.68;;;4.32;;
64550;SDS011;50945;44.472;-123.352;2022-12-18T05:11:45;7.30;;;3.97;;
64550;SDS011;50945;44.472;-123.352;2022-12-18T05:14:12;7.72;;;4.13;;
64550;SDS011;50945;44.472;-123.352;2022-12-18T05:16:38;7.60;;;4.10;;
64550;SDS011;50945;44.472;-123.352;2022-12-18T05:19:05;6.35;;;4.05;;
64550;SDS011;50945;44.472;-123.352;2022-12-18T05:21:31;9.15;;;5.22;;
64550;SDS011;50945;44.472;-123.352;2022-12-18T05:23:58;8.48;;;4.15;;
64550;SDS011;50945;44.472;-123.352;2022-12-18T05:26:24;7.68;;;4.13;;
64550;SDS011;50945;44.472;-123.352;2022-12-18T05:28:51;6.75;;;4.10;;
64550;SDS011;50945;44.472;-123.352;2022-12-18T05:31:17;7.13;;;4.15;;
64550;SDS011;50945;44.472;-123.352;2022-12-18T05:33:44;6.53;;;4.22;;
64550;SDS011;50945;44.472;-123.352;2022-12-18T05:36:10;10.68;;;5.55;;
64550;SDS011;50945;44.472;-123.352;2022-12-18T05:38:40;6.70;;;4.45;;
64550;SDS011;50945;44.472;-123.352;2022-12-18T05:41:07;7.07;;;4.43;;
64550;SDS011;50945;44.472;-123.352;2022-12-18T05:46:34;8.73;;;4.25;;
64550;SDS011;50945;44.472;-123.352;2022-12-18T05:48:54;6.20;;;4.05;;
64550;SDS011;50945;44.472;-123.352;2022-12-18T05:51:24;9.35;;;4.78;;
64550;SDS011;50945;44.472;-123.352;2022-12-18T05:53:51;10.52;;;4.90;;
64550;SDS011;50945;44.472;-123.352;2022-12-18T05:56:20;9.43;;;4.78;;
64550;SDS011;50945;44.472;-123.352;2022-12-18T05:58:50;6.38;;;3.85;;
64550;SDS011;50945;44.472;-123.352;2022-12-18T06:01:19;8.00;;;4.97;;
64550;SDS011;50945;44.472;-123.352;2022-12-18T06:03:48;8.95;;;4.50;;
64550;SDS011;50945;44.472;-123.352;2022-12-18T06:06:15;7.32;;;3.50;;
64550;SDS011;50945;44.472;-123.352;2022-12-18T06:08:44;8.75;;;4.13;;
64550;SDS011;50945;44.472;-123.352;2022-12-18T06:11:12;5.45;;;3.67;;
64550;SDS011;50945;44.472;-123.352;2022-12-18T06:13:38;7.55;;;4.10;;
64550;SDS011;50945;44.472;-123.352;2022-12-18T06:16:05;6.50;;;4.15;;
64550;SDS011;50945;44.472;-123.352;2022-12-18T06:18:32;7.05;;;4.05;;
64550;SDS011;50945;44.472;-123.352;2022-12-18T06:20:59;8.43;;;3.95;;
64550;SDS011;50945;44.472;-123.352;2022-12-18T06:23:26;6.93;;;3.92;;
64550;SDS011;50945;44.472;-123.352;2022-12-18T06:25:53;8.85;;;4.10;;
64550;SDS011;50945;44.472;-123.352;2022-12-18T06:28:19;7.47;;;4.38;;
64550;SDS011;50945;44.472;-123.352;2022-12-18T06:30:46;7.13;;;3.90;;
64550;SDS011;50945;44.472;-123.352;2022-12-18T06:33:14;6.20;;;3.75;;
64550;SDS011;50945;44.472;-123.352;2022-12-18T06:35:41;6.70;;;4.15;;
64550;SDS011;50945;44.472;-123.352;2022-12-18T06:38:08;7.13;;;4.22;;
64550;SDS011;50945;44.472;-123.352;2022-12-18T06:40:36;5.22;;;3.92;;
64550;SDS011;50945;44.472;-123.352;2022-12-18T06:43:04;3.88;;;3.35;;
64550;SDS011;50945;44.472;-123.352;2022-12-18T06:45:31;9.55;;;4.13;;
64550;SDS011;50945;44.472;-123.352;2022-12-18T06:47:57;8.02;;;4.13;;
64550;SDS011;50945;44.472;-123.352;2022-12-18T06:50:24;4.65;;;3.33;;
64550;SDS011;50945;44.472;-123.352;2022-12-18T06:52:50;6.05;;;4.15;;
64550;SDS011;50945;44.472;-123.352;2022-12-18T06:55:17;6.80;;;4.00;;
64550;SDS011;50945;44.472;-123.352;2022-12-18T06:57:43;5.70;;;3.50;;
64550;SDS011;50945;44.472;-123.352;2022-12-18T07:00:11;7.70;;;3.83;;
64550;SDS011;50945;44.472;-123.352;2022-12-18T07:02:37;7.55;;;3.78;;
64550;SDS011;50945;44.472;-123.352;2022-12-18T07:05:04;6.75;;;4.28;;
64550;SDS011;50945;44.472;-123.352;2022-12-18T07:07:31;8.05;;;4.28;;
64550;SDS011;50945;44.472;-123.352;2022-12-18T07:09:59;7.07;;;4.35;;
64550;SDS011;50945;44.472;-123.352;2022-12-18T07:12:29;7.57;;;4.28;;
64550;SDS011;50945;44.472;-123.352;2022-12-18T07:14:55;7.40;;;4.53;;
64550;SDS011;50945;44.472;-123.352;2022-12-18T07:17:22;11.55;;;4.88;;
64550;SDS011;50945;44.472;-123.352;2022-12-18T07:19:48;7.60;;;4.32;;
64550;SDS011;50945;44.472;-123.352;2022-12-18T07:22:14;9.52;;;4.75;;
64550;SDS011;50945;44.472;-123.352;2022-12-18T07:24:41;11.20;;;5.20;;
64550;SDS011;50945;44.472;-123.352;2022-12-18T07:27:07;9.55;;;5.30;;
64550;SDS011;50945;44.472;-123.352;2022-12-18T07:29:34;9.23;;;4.88;;
64550;SDS011;50945;44.472;-123.352;2022-12-18T07:32:00;6.93;;;4.05;;
64550;SDS011;50945;44.472;-123.352;2022-12-18T07:34:26;8.15;;;4.50;;
64550;SDS011;50945;44.472;-123.352;2022-12-18T07:36:53;5.78;;;4.10;;
64550;SDS011;50945;44.472;-123.352;2022-12-18T07:39:19;9.18;;;4.30;;
64550;SDS011;50945;44.472;-123.352;2022-12-18T07:41:45;4.93;;;3.83;;
64550;SDS011;50945;44.472;-123.352;2022-12-18T07:44:31;8.98;;;4.30;;
64550;SDS011;50945;44.472;-123.352;2022-12-18T07:46:58;7.28;;;4.10;;
64550;SDS011;50945;44.472;-123.352;2022-12-18T07:49:24;7.28;;;3.78;;
64550;SDS011;50945;44.472;-123.352;2022-12-18T07:51:50;9.18;;;3.88;;
64550;SDS011;50945;44.472;-123.352;2022-12-18T07:54:17;9.20;;;3.75;;
64550;SDS011;50945;44.472;-123.352;2022-12-18T07:56:43;6.35;;;3.45;;
64550;SDS011;50945;44.472;-123.352;2022-12-18T07:59:10;6.30;;;3.72;;
64550;SDS011;50945;44.472;-123.352;2022-12-18T08:01:36;7.38;;;3.58;;
64550;SDS011;50945;44.472;-123.352;2022-12-18T08:04:02;7.82;;;3.90;;
64550;SDS011;50945;44.472;-123.352;2022-12-18T08:06:29;7.75;;;4.60;;
64550;SDS011;50945;44.472;-123.352;2022-12-18T08:08:55;8.20;;;4.00;;
64550;SDS011;50945;44.472;-123.352;2022-12-18T08:11:23;8.25;;;4.53;;
64550;SDS011;50945;44.472;-123.352;2022-12-18T08:13:51;11.57;;;5.38;;
64550;SDS011;50945;44.472;-123.352;2022-12-18T08:16:18;8.88;;;5.53;;
64550;SDS011;50945;44.472;-123.352;2022-12-18T08:18:45;7.85;;;4.75;;
64550;SDS011;50945;44.472;-123.352;2022-12-18T08:21:13;9.43;;;4.55;;
64550;SDS011;50945;44.472;-123.352;2022-12-18T08:23:41;11.10;;;5.00;;
64550;SDS011;50945;44.472;-123.352;2022-12-18T08:26:07;7.28;;;4.00;;
64550;SDS011;50945;44.472;-123.352;2022-12-18T08:28:34;9.93;;;4.75;;
64550;SDS011;50945;44.472;-123.352;2022-12-18T08:31:01;7.93;;;4.38;;
64550;SDS011;50945;44.472;-123.352;2022-12-18T08:33:27;7.05;;;4.10;;
64550;SDS011;50945;44.472;-123.352;2022-12-18T08:35:53;8.25;;;4.35;;
64550;SDS011;50945;44.472;-123.352;2022-12-18T08:38:20;8.32;;;4.32;;
64550;SDS011;50945;44.472;-123.352;2022-12-18T08:40:48;9.88;;;4.50;;
64550;SDS011;50945;44.472;-123.352;2022-12-18T08:43:14;9.00;;;4.47;;
64550;SDS011;50945;44.472;-123.352;2022-12-18T08:45:58;9.82;;;4.85;;
64550;SDS011;50945;44.472;-123.352;2022-12-18T08:48:25;8.35;;;4.85;;
64550;SDS011;50945;44.472;-123.352;2022-12-18T08:50:57;8.38;;;4.50;;
64550;SDS011;50945;44.472;-123.352;2022-12-18T08:53:25;10.20;;;5.10;;
64550;SDS011;50945;44.472;-123.352;2022-12-18T08:55:52;6.63;;;3.72;;
64550;SDS011;50945;44.472;-123.352;2022-12-18T08:58:19;9.02;;;4.68;;
64550;SDS011;50945;44.472;-123.352;2022-12-18T09:00:45;7.55;;;4.20;;
64550;SDS011;50945;44.472;-123.352;2022-12-18T09:03:12;6.85;;;4.28;;
64550;SDS011;50945;44.472;-123.352;2022-12-18T09:05:39;7.30;;;3.90;;
64550;SDS011;50945;44.472;-123.352;2022-12-18T09:08:05;5.47;;;3.65;;
64550;SDS011;50945;44.472;-123.352;2022-12-18T09:10:31;6.95;;;3.78;;
64550;SDS011;50945;44.472;-123.352;2022-12-18T09:12:58;6.15;;;4.03;;
64550;SDS011;50945;44.472;-123.352;2022-12-18T09:15:24;8.52;;;3.85;;
64550;SDS011;50945;44.472;-123.352;2022-12-18T09:17:51;7.25;;;4.30;;
64550;SDS011;50945;44.472;-123.352;2022-12-18T09:20:18;6.57;;;4.20;;
64550;SDS011;50945;44.472;-123.352;2022-12-18T09:22:45;6.93;;;3.55;;
64550;SDS011;50945;44.472;-123.352;2022-12-18T09:25:11;5.93;;;3.67;;
64550;SDS011;50945;44.472;-123.352;2022-12-18T09:27:37;7.32;;;3.38;;
64550;SDS011;50945;44.472;-123.352;2022-12-18T09:30:04;7.00;;;3.40;;
64550;SDS011;50945;44.472;-123.352;2022-12-18T09:32:31;6.45;;;3.03;;
64550;SDS011;50945;44.472;-123.352;2022-12-18T09:34:57;7.32;;;3.92;;
64550;SDS011;50945;44.472;-123.352;2022-12-18T09:37:24;6.10;;;3.83;;
64550;SDS011;50945;44.472;-123.352;2022-12-18T09:39:50;5.13;;;3.97;;
64550;SDS011;50945;44.472;-123.352;2022-12-18T09:42:18;5.55;;;3.53;;
64550;SDS011;50945;44.472;-123.352;2022-12-18T09:44:51;3.90;;;3.15;;
64550;SDS011;50945;44.472;-123.352;2022-12-18T09:47:27;6.80;;;3.58;;
64550;SDS011;50945;44.472;-123.352;2022-12-18T09:50:05;5.85;;;3.50;;
64550;SDS011;50945;44.472;-123.352;2022-12-18T09:52:46;8.23;;;4.22;;
64550;SDS011;50945;44.472;-123.352;2022-12-18T10:00:57;4.15;;;3.35;;
64550;SDS011;50945;44.472;-123.352;2022-12-18T10:03:24;7.38;;;4.05;;
64550;SDS011;50945;44.472;-123.352;2022-12-18T10:05:59;8.57;;;4.63;;
64550;SDS011;50945;44.472;-123.352;2022-12-18T10:08:54;6.80;;;4.47;;
64550;SDS011;50945;44.472;-123.352;2022-12-18T10:14:12;7.15;;;4.70;;
64550;SDS011;50945;44.472;-123.352;2022-12-18T10:16:50;6.35;;;4.22;;
64550;SDS011;50945;44.472;-123.352;2022-12-18T10:27:38;6.20;;;4.00;;
64550;SDS011;50945;44.472;-123.352;2022-12-18T10:30:11;7.80;;;4.13;;
64550;SDS011;50945;44.472;-123.352;2022-12-18T10:32:40;9.80;;;4.70;;
64550;SDS011;50945;44.472;-123.352;2022-12-18T10:35:23;7.25;;;4.40;;
64550;SDS011;50945;44.472;-123.352;2022-12-18T10:38:06;9.52;;;4.47;;
64550;SDS011;50945;44.472;-123.352;2022-12-18T10:43:19;9.88;;;5.00;;
64550;SDS011;50945;44.472;-123.352;2022-12-18T10:48:47;9.23;;;5.25;;
64550;SDS011;50945;44.472;-123.352;2022-12-18T10:51:26;9.63;;;4.82;;
64550;SDS011;50945;44.472;-123.352;2022-12-18T10:56:24;9.05;;;5.32;;
64550;SDS011;50945;44.472;-123.352;2022-12-18T10:59:00;11.73;;;6.03;;
64550;SDS011;50945;44.472;-123.352;2022-12-18T11:01:50;11.10;;;5.28;;
64550;SDS011;50945;44.472;-123.352;2022-12-18T11:04:18;15.40;;;6.65;;
64550;SDS011;50945;44.472;-123.352;2022-12-18T11:09:36;7.72;;;5.05;;
64550;SDS011;50945;44.472;-123.352;2022-12-18T11:12:08;13.02;;;5.70;;
64550;SDS011;50945;44.472;-123.352;2022-12-18T11:14:48;10.77;;;5.60;;
64550;SDS011;50945;44.472;-123.352;2022-12-18T11:20:04;11.32;;;6.32;;
64550;SDS011;50945;44.472;-123.352;2022-12-18T11:22:35;13.05;;;6.72;;
64550;SDS011;50945;44.472;-123.352;2022-12-18T11:27:41;14.15;;;6.28;;
64550;SDS011;50945;44.472;-123.352;2022-12-18T11:30:22;13.07;;;7.57;;
64550;SDS011;50945;44.472;-123.352;2022-12-18T11:32:52;10.98;;;6.35;;
64550;SDS011;50945;44.472;-123.352;2022-12-18T11:35:42;12.63;;;6.43;;
64550;SDS011;50945;44.472;-123.352;2022-12-18T11:40:51;13.07;;;6.97;;
64550;SDS011;50945;44.472;-123.352;2022-12-18T11:43:29;11.98;;;6.50;;
64550;SDS011;50945;44.472;-123.352;2022-12-18T11:46:07;10.27;;;5.57;;
64550;SDS011;50945;44.472;-123.352;2022-12-18T11:48:49;10.23;;;5.65;;
64550;SDS011;50945;44.472;-123.352;2022-12-18T11:51:37;10.00;;;5.95;;
64550;SDS011;50945;44.472;-123.352;2022-12-18T11:54:28;9.43;;;5.43;;
64550;SDS011;50945;44.472;-123.352;2022-12-18T11:57:19;7.65;;;5.10;;
64550;SDS011;50945;44.472;-123.352;2022-12-18T12:00:11;10.05;;;5.22;;
64550;SDS011;50945;44.472;-123.352;2022-12-18T12:08:23;11.95;;;5.20;;
64550;SDS011;50945;44.472;-123.352;2022-12-18T12:25:37;13.10;;;6.00;;
64550;SDS011;50945;44.472;-123.352;2022-12-18T12:33:36;10.52;;;5.38;;
64550;SDS011;50945;44.472;-123.352;2022-12-18T12:38:41;11.18;;;5.28;;
64550;SDS011;50945;44.472;-123.352;2022-12-18T12:41:17;9.93;;;4.95;;
64550;SDS011;50945;44.472;-123.352;2022-12-18T12:44:07;8.85;;;4.70;;
64550;SDS011;50945;44.472;-123.352;2022-12-18T12:46:40;9.23;;;5.15;;
64550;SDS011;50945;44.472;-123.352;2022-12-18T12:49:15;10.13;;;5.80;;
64550;SDS011;50945;44.472;-123.352;2022-12-18T12:51:45;9.43;;;4.95;;
64550;SDS011;50945;44.472;-123.352;2022-12-18T12:54:20;12.07;;;5.65;;
64550;SDS011;50945;44.472;-123.352;2022-12-18T13:07:15;11.77;;;5.63;;
64550;SDS011;50945;44.472;-123.352;2022-12-18T13:12:51;11.27;;;5.10;;
64550;SDS011;50945;44.472;-123.352;2022-12-18T13:15:27;10.05;;;4.82;;
64550;SDS011;50945;44.472;-123.352;2022-12-18T13:23:46;9.63;;;4.72;;
64550;SDS011;50945;44.472;-123.352;2022-12-18T13:31:14;10.55;;;5.55;;
64550;SDS011;50945;44.472;-123.352;2022-12-18T13:36:52;10.18;;;4.75;;
64550;SDS011;50945;44.472;-123.352;2022-12-18T13:42:37;7.88;;;5.28;;
64550;SDS011;50945;44.472;-123.352;2022-12-18T13:44:55;12.35;;;6.20;;
64550;SDS011;50945;44.472;-123.352;2022-12-18T13:47:32;10.50;;;5.65;;
64550;SDS011;50945;44.472;-123.352;2022-12-18T13:50:11;10.13;;;4.90;;
64550;SDS011;50945;44.472;-123.352;2022-12-18T13:52:48;8.25;;;5.05;;
64550;SDS011;50945;44.472;-123.352;2022-12-18T13:55:17;10.85;;;5.32;;
64550;SDS011;50945;44.472;-123.352;2022-12-18T13:57:45;6.40;;;4.57;;
64550;SDS011;50945;44.472;-123.352;2022-12-18T14:00:30;8.60;;;5.95;;
64550;SDS011;50945;44.472;-123.352;2022-12-18T14:02:57;8.93;;;5.05;;
64550;SDS011;50945;44.472;-123.352;2022-12-18T14:05:29;9.20;;;5.63;;
64550;SDS011;50945;44.472;-123.352;2022-12-18T14:08:14;11.02;;;5.35;;
64550;SDS011;50945;44.472;-123.352;2022-12-18T14:10:42;11.25;;;5.60;;
64550;SDS011;50945;44.472;-123.352;2022-12-18T14:15:53;9.52;;;5.43;;
64550;SDS011;50945;44.472;-123.352;2022-12-18T14:18:24;8.40;;;5.15;;
64550;SDS011;50945;44.472;-123.352;2022-12-18T14:21:03;9.45;;;5.55;;
64550;SDS011;50945;44.472;-123.352;2022-12-18T14:23:38;11.23;;;5.72;;
64550;SDS011;50945;44.472;-123.352;2022-12-18T14:29:00;8.48;;;4.68;;
64550;SDS011;50945;44.472;-123.352;2022-12-18T14:31:43;8.13;;;4.78;;
64550;SDS011;50945;44.472;-123.352;2022-12-18T14:34:15;8.75;;;5.10;;
64550;SDS011;50945;44.472;-123.352;2022-12-18T14:36:51;10.05;;;5.10;;
64550;SDS011;50945;44.472;-123.352;2022-12-18T14:39:20;7.82;;;4.45;;
64550;SDS011;50945;44.472;-123.352;2022-12-18T14:41:50;10.57;;;5.25;;
64550;SDS011;50945;44.472;-123.352;2022-12-18T14:44:18;6.28;;;4.20;;
64550;SDS011;50945;44.472;-123.352;2022-12-18T14:46:46;9.05;;;4.93;;
64550;SDS011;50945;44.472;-123.352;2022-12-18T14:49:29;8.88;;;5.68;;
64550;SDS011;50945;44.472;-123.352;2022-12-18T14:52:00;7.10;;;4.95;;
64550;SDS011;50945;44.472;-123.352;2022-12-18T14:54:29;8.20;;;5.13;;
64550;SDS011;50945;44.472;-123.352;2022-12-18T14:59:44;7.88;;;4.90;;
64550;SDS011;50945;44.472;-123.352;2022-12-18T15:02:21;7.97;;;4.65;;
64550;SDS011;50945;44.472;-123.352;2022-12-18T15:05:04;7.15;;;4.80;;
64550;SDS011;50945;44.472;-123.352;2022-12-18T15:07:40;13.35;;;5.10;;
64550;SDS011;50945;44.472;-123.352;2022-12-18T15:10:12;8.90;;;5.25;;
64550;SDS011;50945;44.472;-123.352;2022-12-18T15:12:49;10.68;;;5.22;;
64550;SDS011;50945;44.472;-123.352;2022-12-18T15:26:04;8.90;;;5.13;;
64550;SDS011;50945;44.472;-123.352;2022-12-18T15:28:48;11.38;;;5.22;;
64550;SDS011;50945;44.472;-123.352;2022-12-18T15:33:42;9.60;;;5.10;;
64550;SDS011;50945;44.472;-123.352;2022-12-18T15:36:29;11.20;;;5.50;;
64550;SDS011;50945;44.472;-123.352;2022-12-18T15:38:56;8.18;;;5.25;;
64550;SDS011;50945;44.472;-123.352;2022-12-18T15:41:23;10.35;;;5.68;;
64550;SDS011;50945;44.472;-123.352;2022-12-18T15:43:51;9.80;;;5.40;;
64550;SDS011;50945;44.472;-123.352;2022-12-18T15:46:19;8.15;;;5.10;;
64550;SDS011;50945;44.472;-123.352;2022-12-18T15:48:48;10.55;;;6.03;;
64550;SDS011;50945;44.472;-123.352;2022-12-18T15:51:18;12.60;;;5.43;;
64550;SDS011;50945;44.472;-123.352;2022-12-18T15:53:47;10.20;;;5.55;;
64550;SDS011;50945;44.472;-123.352;2022-12-18T15:56:16;8.57;;;5.40;;
64550;SDS011;50945;44.472;-123.352;2022-12-18T15:59:01;9.95;;;5.18;;
64550;SDS011;50945;44.472;-123.352;2022-12-18T16:01:29;10.25;;;5.75;;
64550;SDS011;50945;44.472;-123.352;2022-12-18T16:03:59;9.27;;;5.32;;
64550;SDS011;50945;44.472;-123.352;2022-12-18T16:06:25;10.35;;;5.57;;
64550;SDS011;50945;44.472;-123.352;2022-12-18T16:08:52;9.00;;;5.32;;
64550;SDS011;50945;44.472;-123.352;2022-12-18T16:14:25;10.18;;;5.32;;
64550;SDS011;50945;44.472;-123.352;2022-12-18T16:16:54;6.95;;;4.97;;
64550;SDS011;50945;44.472;-123.352;2022-12-18T16:19:23;9.65;;;5.55;;
64550;SDS011;50945;44.472;-123.352;2022-12-18T16:21:50;10.05;;;5.60;;
64550;SDS011;50945;44.472;-123.352;2022-12-18T16:24:19;11.43;;;5.38;;
64550;SDS011;50945;44.472;-123.352;2022-12-18T16:26:51;8.45;;;5.15;;
64550;SDS011;50945;44.472;-123.352;2022-12-18T16:31:45;9.15;;;4.88;;
64550;SDS011;50945;44.472;-123.352;2022-12-18T16:34:28;9.52;;;5.47;;
64550;SDS011;50945;44.472;-123.352;2022-12-18T16:36:57;9.05;;;5.18;;
64550;SDS011;50945;44.472;-123.352;2022-12-18T16:39:28;7.45;;;4.40;;
64550;SDS011;50945;44.472;-123.352;2022-12-18T16:41:56;8.45;;;4.80;;
64550;SDS011;50945;44.472;-123.352;2022-12-18T16:44:22;9.98;;;5.18;;
64550;SDS011;50945;44.472;-123.352;2022-12-18T16:46:49;9.05;;;5.38;;
64550;SDS011;50945;44.472;-123.352;2022-12-18T16:49:15;8.10;;;4.97;;
64550;SDS011;50945;44.472;-123.352;2022-12-18T16:51:43;8.27;;;4.93;;
64550;SDS011;50945;44.472;-123.352;2022-12-18T16:54:12;10.45;;;5.85;;
64550;SDS011;50945;44.472;-123.352;2022-12-18T16:56:38;9.90;;;5.40;;
64550;SDS011;50945;44.472;-123.352;2022-12-18T16:59:04;9.82;;;6.10;;
64550;SDS011;50945;44.472;-123.352;2022-12-18T17:01:34;9.88;;;5.38;;
64550;SDS011;50945;44.472;-123.352;2022-12-18T17:04:02;12.20;;;5.78;;
64550;SDS011;50945;44.472;-123.352;2022-12-18T17:06:31;10.82;;;5.10;;
64550;SDS011;50945;44.472;-123.352;2022-12-18T17:09:00;10.57;;;5.45;;
64550;SDS011;50945;44.472;-123.352;2022-12-18T17:11:29;9.48;;;5.20;;